Time;durP1;ratioP1;P1;durP2;ratioP2;P2;SDS_P1;SDS_P2;PMS_P1;PMS_P2;Temp;Humidity;BMP_temperature;BMP_pressure;BME280_temperature;BME280_humidity;BME280_pressure;Samples;Min_cycle;Max_cycle;Signal;HPM_P1;HPM_P2
2022/05/13 00:01:49;;;;;;;14.40;13.35;;;;;;;;;;10443914;28;20241;-73
2022/05/13 00:06:50;;;;;;;13.38;12.30;;;;;;;;;;10441175;28;21194;-75
2022/05/13 00:11:51;;;;;;;14.15;13.00;;;;;;;;;;10448920;28;20202;-73
2022/05/13 00:16:52;;;;;;;12.63;11.35;;;;;;;;;;10446468;28;20706;-73
2022/05/13 00:21:53;;;;;;;14.15;12.85;;;;;;;;;;10431525;28;20277;-73
2022/05/13 00:26:54;;;;;;;13.63;12.43;;;;;;;;;;10438985;28;20292;-73
2022/05/13 00:31:55;;;;;;;13.82;12.88;;;;;;;;;;10444462;28;20231;-73
2022/05/13 00:36:56;;;;;;;14.82;13.55;;;;;;;;;;10439996;28;20380;-73
2022/05/13 00:42:08;;;;;;;14.45;13.25;;;;;;;;;;10440299;28;20202;-73
2022/05/13 00:47:10;;;;;;;15.10;13.90;;;;;;;;;;10445834;28;20222;-74
2022/05/13 00:52:12;;;;;;;15.60;14.20;;;;;;;;;;10443633;28;20232;-73
2022/05/13 00:57:13;;;;;;;15.07;13.80;;;;;;;;;;10422381;28;20214;-73
2022/05/13 01:02:15;;;;;;;14.18;12.98;;;;;;;;;;10427101;28;20279;-73
2022/05/13 01:07:19;;;;;;;13.00;11.90;;;;;;;;;;10435704;28;20238;-74
2022/05/13 01:12:23;;;;;;;13.38;12.13;;;;;;;;;;10437033;28;20308;-73
2022/05/13 01:22:48;;;;;;;12.68;11.68;;;;;;;;;;10435857;28;20213;-73
2022/05/13 01:27:49;;;;;;;12.55;11.60;;;;;;;;;;10440319;28;20875;-74
2022/05/13 01:32:50;;;;;;;13.30;12.27;;;;;;;;;;10416955;28;20238;-74
2022/05/13 01:37:51;;;;;;;12.88;11.85;;;;;;;;;;10433940;28;20275;-73
2022/05/13 01:42:53;;;;;;;12.77;11.80;;;;;;;;;;10442859;28;20194;-73
2022/05/13 01:47:54;;;;;;;12.65;11.65;;;;;;;;;;10438889;28;20240;-74
2022/05/13 01:52:55;;;;;;;14.32;12.93;;;;;;;;;;10426757;28;20209;-73
2022/05/13 01:57:56;;;;;;;14.48;12.55;;;;;;;;;;10413692;28;20219;-73
2022/05/13 02:08:17;;;;;;;13.88;12.90;;;;;;;;;;10432963;28;20206;-73
2022/05/13 02:13:18;;;;;;;13.77;12.48;;;;;;;;;;10441637;28;20694;-73
2022/05/13 02:18:19;;;;;;;14.65;13.38;;;;;;;;;;10420200;28;20627;-72
2022/05/13 02:23:20;;;;;;;15.07;13.70;;;;;;;;;;10440047;28;20202;-73
2022/05/13 02:28:21;;;;;;;14.90;13.40;;;;;;;;;;10439210;28;20289;-74
2022/05/13 02:33:23;;;;;;;14.65;13.45;;;;;;;;;;10436720;28;20316;-73
2022/05/13 02:38:24;;;;;;;15.38;14.02;;;;;;;;;;10437075;28;20224;-73
2022/05/13 02:43:25;;;;;;;14.00;12.50;;;;;;;;;;10441815;28;21265;-73
2022/05/13 02:48:26;;;;;;;14.52;13.13;;;;;;;;;;10418967;28;20297;-73
2022/05/13 02:53:27;;;;;;;18.50;14.32;;;;;;;;;;10436793;28;20733;-73
2022/05/13 02:58:28;;;;;;;15.02;13.68;;;;;;;;;;10442177;28;20210;-73
2022/05/13 03:03:30;;;;;;;13.65;12.43;;;;;;;;;;10430249;28;20304;-73
2022/05/13 03:08:31;;;;;;;14.73;13.38;;;;;;;;;;10435151;28;20210;-73
2022/05/13 03:13:32;;;;;;;17.38;15.68;;;;;;;;;;10441101;28;20208;-73
2022/05/13 03:18:33;;;;;;;14.68;13.18;;;;;;;;;;10431355;28;20226;-73
2022/05/13 03:23:34;;;;;;;15.90;13.65;;;;;;;;;;10450722;28;20197;-73
2022/05/13 03:28:35;;;;;;;13.65;12.55;;;;;;;;;;10448124;28;20205;-74
2022/05/13 03:33:36;;;;;;;14.05;12.95;;;;;;;;;;10452844;28;20226;-71
2022/05/13 03:38:37;;;;;;;17.08;15.35;;;;;;;;;;10458192;28;20253;-72
2022/05/13 03:43:39;;;;;;;16.38;14.90;;;;;;;;;;10440486;28;20217;-73
2022/05/13 03:48:40;;;;;;;18.55;14.95;;;;;;;;;;10427816;28;20199;-72
2022/05/13 03:53:41;;;;;;;15.45;14.07;;;;;;;;;;10440411;28;20202;-72
2022/05/13 03:58:42;;;;;;;18.45;16.63;;;;;;;;;;10442910;28;20222;-72
2022/05/13 04:03:43;;;;;;;20.15;15.80;;;;;;;;;;10446535;28;20744;-72
2022/05/13 04:08:56;;;;;;;16.60;15.02;;;;;;;;;;10443701;28;20338;-73
2022/05/13 04:19:18;;;;;;;16.92;15.23;;;;;;;;;;10446954;28;21081;-73
2022/05/13 04:24:19;;;;;;;14.93;13.35;;;;;;;;;;10414701;28;20702;-73
2022/05/13 04:29:20;;;;;;;15.63;14.13;;;;;;;;;;10427452;28;20206;-74
2022/05/13 04:34:21;;;;;;;17.40;15.75;;;;;;;;;;10427571;28;20623;-73
2022/05/13 04:39:23;;;;;;;17.17;15.50;;;;;;;;;;10445206;28;20205;-75
2022/05/13 04:44:24;;;;;;;19.38;16.83;;;;;;;;;;10437500;28;20260;-74
2022/05/13 04:49:25;;;;;;;15.52;14.15;;;;;;;;;;10443074;28;20240;-74
2022/05/13 04:54:26;;;;;;;19.20;14.18;;;;;;;;;;10440200;28;20591;-74
2022/05/13 04:59:27;;;;;;;15.90;14.50;;;;;;;;;;10397709;28;20198;-73
2022/05/13 05:04:28;;;;;;;15.75;14.20;;;;;;;;;;10447108;28;20246;-74
2022/05/13 05:09:29;;;;;;;13.95;12.43;;;;;;;;;;10448226;28;20205;-74
2022/05/13 05:14:30;;;;;;;13.30;12.20;;;;;;;;;;10455335;28;20205;-74
2022/05/13 05:19:32;;;;;;;13.10;11.75;;;;;;;;;;10450345;28;20263;-74
2022/05/13 05:24:33;;;;;;;14.35;12.23;;;;;;;;;;10438584;28;20198;-75
2022/05/13 05:29:37;;;;;;;14.25;13.00;;;;;;;;;;10443498;28;20222;-74
2022/05/13 05:34:39;;;;;;;14.10;12.77;;;;;;;;;;10437028;28;20214;-73
2022/05/13 05:39:40;;;;;;;16.52;13.27;;;;;;;;;;10452208;28;20271;-74
2022/05/13 05:44:41;;;;;;;13.85;12.43;;;;;;;;;;10453747;28;20264;-74
2022/05/13 05:49:42;;;;;;;14.80;13.43;;;;;;;;;;10453417;28;20198;-74
2022/05/13 06:00:06;;;;;;;14.18;12.00;;;;;;;;;;10449839;28;20201;-74
2022/05/13 06:05:07;;;;;;;14.13;10.38;;;;;;;;;;10449856;28;20918;-75
2022/05/13 06:10:08;;;;;;;9.70;8.90;;;;;;;;;;10427570;28;20230;-74
2022/05/13 06:15:10;;;;;;;12.43;10.43;;;;;;;;;;10432156;28;20213;-74
2022/05/13 06:20:11;;;;;;;8.80;8.18;;;;;;;;;;10458443;28;20235;-74
2022/05/13 06:25:14;;;;;;;9.05;8.25;;;;;;;;;;10452829;28;20224;-74
2022/05/13 06:30:17;;;;;;;12.35;8.90;;;;;;;;;;10448755;28;20217;-74
2022/05/13 06:35:18;;;;;;;8.63;7.72;;;;;;;;;;10448421;28;20214;-74
2022/05/13 06:40:22;;;;;;;8.52;7.68;;;;;;;;;;10455200;28;20202;-74
2022/05/13 06:45:23;;;;;;;8.02;7.03;;;;;;;;;;10456107;28;20230;-75
2022/05/13 06:50:25;;;;;;;10.35;6.22;;;;;;;;;;10467629;28;20201;-75
2022/05/13 06:55:26;;;;;;;5.85;5.50;;;;;;;;;;10466996;28;20210;-75
2022/05/13 07:00:28;;;;;;;6.80;5.30;;;;;;;;;;10464922;28;20206;-75
2022/05/13 07:05:29;;;;;;;6.50;5.55;;;;;;;;;;10468704;28;20210;-74
2022/05/13 07:10:30;;;;;;;8.82;5.35;;;;;;;;;;10468426;28;20553;-75
2022/05/13 07:15:31;;;;;;;6.32;4.53;;;;;;;;;;10463933;28;20320;-74
2022/05/13 07:20:32;;;;;;;4.47;4.05;;;;;;;;;;10467302;28;20612;-74
2022/05/13 07:25:33;;;;;;;5.38;4.50;;;;;;;;;;10466144;28;20204;-74
2022/05/13 07:30:34;;;;;;;4.57;3.63;;;;;;;;;;10465249;28;20226;-75
2022/05/13 07:35:35;;;;;;;4.78;4.45;;;;;;;;;;10466421;28;20281;-74
2022/05/13 07:45:56;;;;;;;5.75;3.58;;;;;;;;;;10449727;28;20227;-74
2022/05/13 07:50:58;;;;;;;4.00;3.63;;;;;;;;;;10468105;28;20202;-75
2022/05/13 07:55:59;;;;;;;4.18;3.47;;;;;;;;;;10426103;28;20247;-75
2022/05/13 08:01:00;;;;;;;3.35;3.10;;;;;;;;;;10426586;28;20242;-75
2022/05/13 08:06:06;;;;;;;4.47;3.25;;;;;;;;;;10449469;28;21383;-76
2022/05/13 08:11:10;;;;;;;4.05;3.38;;;;;;;;;;10454794;28;20228;-75
2022/05/13 08:16:16;;;;;;;3.33;2.38;;;;;;;;;;10454527;28;20321;-75
2022/05/13 08:21:18;;;;;;;3.47;2.65;;;;;;;;;;10447721;28;20195;-74
2022/05/13 08:26:19;;;;;;;2.70;2.28;;;;;;;;;;10463842;28;20232;-75
2022/05/13 08:31:20;;;;;;;3.08;2.00;;;;;;;;;;10446269;28;20223;-73
2022/05/13 08:36:25;;;;;;;2.63;2.25;;;;;;;;;;10455231;28;20214;-74
2022/05/13 08:41:44;;;;;;;3.60;2.30;;;;;;;;;;10459089;28;20234;-74
2022/05/13 08:46:56;;;;;;;3.20;2.30;;;;;;;;;;10431083;28;20229;-74
2022/05/13 08:52:03;;;;;;;5.30;2.72;;;;;;;;;;10438190;28;20212;-75
2022/05/13 08:57:06;;;;;;;6.57;2.30;;;;;;;;;;10415426;28;20828;-75
2022/05/13 09:02:11;;;;;;;3.85;1.77;;;;;;;;;;10409581;28;20242;-75
2022/05/13 09:07:14;;;;;;;1.70;1.38;;;;;;;;;;10417900;28;20313;-75
2022/05/13 09:12:23;;;;;;;3.00;1.20;;;;;;;;;;10406870;28;20203;-75
2022/05/13 09:17:35;;;;;;;5.82;1.88;;;;;;;;;;10404787;28;20214;-74
2022/05/13 09:22:39;;;;;;;3.63;2.00;;;;;;;;;;10411299;28;20206;-74
2022/05/13 09:27:44;;;;;;;6.90;2.40;;;;;;;;;;10404907;28;20263;-74
2022/05/13 09:32:46;;;;;;;7.32;4.00;;;;;;;;;;10423678;28;20250;-75
2022/05/13 09:37:47;;;;;;;8.27;3.90;;;;;;;;;;10433897;28;20199;-75
2022/05/13 09:42:49;;;;;;;6.50;3.20;;;;;;;;;;10429800;28;20310;-75
2022/05/13 09:48:09;;;;;;;3.95;2.95;;;;;;;;;;10430755;28;20236;-74
2022/05/13 09:53:25;;;;;;;5.93;3.90;;;;;;;;;;10458362;28;20690;-75
2022/05/13 09:58:27;;;;;;;5.25;2.67;;;;;;;;;;10446921;28;20213;-75
2022/05/13 10:03:29;;;;;;;3.42;3.13;;;;;;;;;;10444378;28;20737;-76
2022/05/13 10:08:31;;;;;;;4.03;3.30;;;;;;;;;;10435481;28;20220;-76
2022/05/13 10:18:53;;;;;;;4.82;2.97;;;;;;;;;;10422675;28;20302;-75
2022/05/13 10:23:54;;;;;;;3.33;2.50;;;;;;;;;;10447469;28;20224;-76
2022/05/13 10:29:07;;;;;;;6.45;2.60;;;;;;;;;;10450331;28;20280;-76
2022/05/13 10:34:22;;;;;;;3.20;2.42;;;;;;;;;;10444378;28;20576;-76
2022/05/13 10:39:25;;;;;;;3.67;3.38;;;;;;;;;;10457445;28;20213;-75
2022/05/13 10:44:26;;;;;;;4.05;3.10;;;;;;;;;;10450895;28;20237;-75
2022/05/13 10:49:40;;;;;;;4.38;2.65;;;;;;;;;;10449445;28;21154;-75
2022/05/13 10:54:55;;;;;;;3.20;2.30;;;;;;;;;;10452354;28;20236;-75
2022/05/13 11:00:04;;;;;;;4.75;2.65;;;;;;;;;;10447683;28;20191;-76
2022/05/13 11:05:09;;;;;;;8.07;2.63;;;;;;;;;;10453560;28;20269;-74
2022/05/13 11:10:29;;;;;;;4.55;1.90;;;;;;;;;;10449533;28;20213;-75
2022/05/13 11:15:37;;;;;;;3.85;2.70;;;;;;;;;;10446728;28;20206;-75
2022/05/13 11:20:49;;;;;;;3.42;1.67;;;;;;;;;;10445511;28;20237;-75
2022/05/13 11:25:59;;;;;;;6.07;2.17;;;;;;;;;;10431461;28;20206;-74
2022/05/13 11:31:19;;;;;;;4.55;1.83;;;;;;;;;;10439326;28;20305;-75
2022/05/13 11:36:23;;;;;;;2.75;1.52;;;;;;;;;;10452428;28;20310;-74
2022/05/13 11:41:24;;;;;;;1.58;0.93;;;;;;;;;;10451810;28;20807;-74
2022/05/13 11:46:46;;;;;;;5.70;1.20;;;;;;;;;;10447216;28;20241;-75
2022/05/13 11:51:47;;;;;;;1.95;0.90;;;;;;;;;;10428054;28;20220;-74
2022/05/13 11:56:49;;;;;;;3.17;1.10;;;;;;;;;;10435839;28;20198;-74
2022/05/13 12:01:50;;;;;;;1.08;0.90;;;;;;;;;;10465938;28;20215;-74
2022/05/13 12:06:51;;;;;;;2.40;1.00;;;;;;;;;;10451386;28;20206;-74
2022/05/13 12:12:15;;;;;;;1.17;1.00;;;;;;;;;;10447092;28;20356;-75
2022/05/13 12:17:36;;;;;;;1.90;0.80;;;;;;;;;;10436732;28;20288;-74
2022/05/13 12:23:00;;;;;;;3.55;1.02;;;;;;;;;;10445280;28;20209;-75
2022/05/13 12:28:01;;;;;;;2.00;0.88;;;;;;;;;;10436140;28;20203;-75
2022/05/13 12:33:20;;;;;;;1.58;0.82;;;;;;;;;;10432055;28;20324;-75
2022/05/13 12:38:21;;;;;;;0.98;0.88;;;;;;;;;;10457115;28;20750;-75
2022/05/13 12:43:25;;;;;;;1.48;1.20;;;;;;;;;;10449402;28;20220;-75
2022/05/13 12:48:26;;;;;;;2.45;0.95;;;;;;;;;;10448546;28;20281;-75
2022/05/13 12:53:30;;;;;;;4.45;1.10;;;;;;;;;;10441051;28;20205;-76
2022/05/13 12:58:31;;;;;;;3.30;0.90;;;;;;;;;;10451526;28;20233;-76
2022/05/13 13:03:37;;;;;;;1.95;1.13;;;;;;;;;;10441732;28;20208;-76
2022/05/13 13:08:39;;;;;;;2.08;0.82;;;;;;;;;;10450591;28;20203;-76
2022/05/13 13:13:44;;;;;;;1.98;0.70;;;;;;;;;;10443651;28;20934;-75
2022/05/13 13:18:45;;;;;;;1.70;1.08;;;;;;;;;;10449760;28;20695;-76
2022/05/13 13:23:49;;;;;;;1.17;0.90;;;;;;;;;;10442606;28;20218;-76
2022/05/13 13:28:52;;;;;;;3.00;1.15;;;;;;;;;;10448137;28;20240;-76
2022/05/13 13:33:54;;;;;;;2.15;0.80;;;;;;;;;;10441921;28;20416;-75
2022/05/13 13:39:02;;;;;;;5.18;1.23;;;;;;;;;;10449291;28;20249;-75
2022/05/13 13:44:06;;;;;;;6.13;0.98;;;;;;;;;;10432190;28;21506;-75
2022/05/13 13:49:10;;;;;;;3.33;0.93;;;;;;;;;;10462636;28;20210;-75
2022/05/13 13:54:18;;;;;;;1.60;0.80;;;;;;;;;;10433684;28;20256;-76
2022/05/13 13:59:22;;;;;;;1.58;0.80;;;;;;;;;;10416976;28;20210;-76
2022/05/13 14:04:27;;;;;;;1.30;0.82;;;;;;;;;;10441132;28;20356;-76
2022/05/13 14:09:33;;;;;;;2.35;0.88;;;;;;;;;;10412310;28;20211;-75
2022/05/13 14:14:34;;;;;;;2.95;1.15;;;;;;;;;;10446800;28;20206;-75
2022/05/13 14:19:37;;;;;;;2.42;1.10;;;;;;;;;;10441975;28;20209;-75
2022/05/13 14:24:41;;;;;;;2.25;0.90;;;;;;;;;;10435419;28;20195;-76
2022/05/13 14:29:42;;;;;;;7.25;0.60;;;;;;;;;;10424057;28;21144;-75
2022/05/13 14:34:44;;;;;;;0.70;0.70;;;;;;;;;;10450825;28;21029;-76
2022/05/13 14:39:51;;;;;;;2.53;0.90;;;;;;;;;;10436411;28;20585;-75
2022/05/13 14:44:59;;;;;;;4.03;0.70;;;;;;;;;;10431466;28;20317;-76
2022/05/13 14:50:01;;;;;;;3.90;0.73;;;;;;;;;;10433309;28;20200;-75
2022/05/13 14:55:05;;;;;;;2.90;0.77;;;;;;;;;;10447699;28;20202;-75
2022/05/13 15:00:13;;;;;;;1.75;0.60;;;;;;;;;;10439779;28;20207;-74
2022/05/13 15:05:26;;;;;;;3.05;1.08;;;;;;;;;;10417453;28;20675;-74
2022/05/13 15:10:29;;;;;;;1.38;0.60;;;;;;;;;;10404329;28;20642;-75
2022/05/13 15:15:30;;;;;;;1.42;0.52;;;;;;;;;;10428523;28;21166;-76
2022/05/13 15:20:32;;;;;;;0.82;0.60;;;;;;;;;;10451281;28;20297;-75
2022/05/13 15:25:33;;;;;;;8.07;1.10;;;;;;;;;;10442441;28;20190;-75
2022/05/13 15:30:34;;;;;;;3.70;0.85;;;;;;;;;;10432516;28;20705;-75
2022/05/13 15:35:35;;;;;;;2.08;0.73;;;;;;;;;;10435847;28;20229;-76
2022/05/13 15:40:37;;;;;;;1.75;0.70;;;;;;;;;;10428284;28;20251;-76
2022/05/13 15:45:40;;;;;;;2.33;0.80;;;;;;;;;;10431667;28;20227;-75
2022/05/13 15:56:01;;;;;;;4.45;0.73;;;;;;;;;;10429968;28;20213;-74
2022/05/13 16:01:03;;;;;;;1.75;0.60;;;;;;;;;;10431560;28;20218;-75
2022/05/13 16:06:04;;;;;;;1.25;0.85;;;;;;;;;;10450484;28;20255;-75
2022/05/13 16:11:09;;;;;;;3.05;0.90;;;;;;;;;;10435915;28;20198;-73
2022/05/13 16:16:15;;;;;;;4.68;1.00;;;;;;;;;;10390351;28;20206;-76
2022/05/13 16:21:28;;;;;;;2.30;1.10;;;;;;;;;;10436654;28;20191;-75
2022/05/13 16:26:30;;;;;;;3.17;0.88;;;;;;;;;;10413422;28;20206;-75
2022/05/13 16:31:32;;;;;;;3.63;1.23;;;;;;;;;;10434036;28;20253;-74
2022/05/13 16:37:41;;;;;;;1.50;0.90;;;;;;;;;;10437191;28;20218;-74
2022/05/13 16:41:57;;;;;;;2.15;1.00;;;;;;;;;;10428865;28;20224;-74
2022/05/13 16:46:58;;;;;;;3.42;0.73;;;;;;;;;;10441881;28;20891;-75
2022/05/13 16:51:59;;;;;;;1.58;0.75;;;;;;;;;;10438816;28;20695;-74
2022/05/13 16:57:02;;;;;;;4.43;0.90;;;;;;;;;;10418765;28;21233;-75
2022/05/13 17:02:03;;;;;;;3.90;0.88;;;;;;;;;;10444151;28;20252;-74
2022/05/13 17:07:04;;;;;;;2.50;0.80;;;;;;;;;;10403641;28;20683;-74
2022/05/13 17:17:26;;;;;;;1.15;0.93;;;;;;;;;;10404515;28;20271;-75
2022/05/13 17:22:27;;;;;;;1.48;0.90;;;;;;;;;;10432399;28;20195;-75
2022/05/13 17:27:36;;;;;;;3.25;1.25;;;;;;;;;;10430529;28;20233;-76
2022/05/13 17:32:38;;;;;;;1.15;0.90;;;;;;;;;;10426026;28;20231;-76
2022/05/13 17:37:41;;;;;;;7.32;1.13;;;;;;;;;;10432616;28;20264;-76
2022/05/13 17:42:43;;;;;;;1.42;1.20;;;;;;;;;;10439479;28;20314;-76
2022/05/13 17:47:45;;;;;;;1.73;1.00;;;;;;;;;;10444357;28;20226;-77
2022/05/13 17:52:48;;;;;;;2.10;1.48;;;;;;;;;;10448036;28;20217;-77
2022/05/13 17:57:49;;;;;;;1.98;1.10;;;;;;;;;;10437800;28;20235;-75
2022/05/13 18:02:50;;;;;;;3.80;1.20;;;;;;;;;;10437807;28;20287;-76
2022/05/13 18:07:51;;;;;;;2.92;1.35;;;;;;;;;;10453487;28;20209;-76
2022/05/13 18:12:52;;;;;;;3.75;1.30;;;;;;;;;;10444999;28;20221;-77
2022/05/13 18:17:54;;;;;;;5.72;1.77;;;;;;;;;;10432390;28;20205;-76
2022/05/13 18:22:56;;;;;;;2.33;1.00;;;;;;;;;;10440506;28;20198;-77
2022/05/13 18:27:58;;;;;;;1.98;1.42;;;;;;;;;;10465866;28;20261;-76
2022/05/13 18:32:59;;;;;;;2.45;1.13;;;;;;;;;;10456983;28;20298;-76
2022/05/13 18:38:00;;;;;;;2.63;1.50;;;;;;;;;;10415577;28;20272;-77
2022/05/13 18:48:20;;;;;;;1.55;1.38;;;;;;;;;;10429245;28;20310;-76
2022/05/13 18:53:23;;;;;;;4.00;1.90;;;;;;;;;;10457900;28;20273;-77
2022/05/13 18:58:28;;;;;;;2.65;1.70;;;;;;;;;;10422414;28;20808;-76
2022/05/13 19:03:30;;;;;;;4.25;1.65;;;;;;;;;;10419620;28;20249;-75
2022/05/13 19:08:32;;;;;;;8.45;2.35;;;;;;;;;;10408895;28;20195;-75
2022/05/13 19:13:34;;;;;;;1.75;1.65;;;;;;;;;;10444775;28;20610;-75
2022/05/13 19:18:37;;;;;;;5.93;1.73;;;;;;;;;;10421697;28;20206;-75
2022/05/13 19:23:38;;;;;;;2.33;1.02;;;;;;;;;;10432699;28;20206;-76
2022/05/13 19:28:40;;;;;;;1.60;1.50;;;;;;;;;;10405083;28;20306;-75
2022/05/13 19:33:41;;;;;;;1.88;1.77;;;;;;;;;;10438487;28;20217;-75
2022/05/13 19:38:43;;;;;;;4.07;1.90;;;;;;;;;;10449322;28;20283;-75
2022/05/13 19:43:44;;;;;;;2.63;1.88;;;;;;;;;;10434542;28;20760;-74
2022/05/13 19:48:46;;;;;;;3.15;1.90;;;;;;;;;;10431002;28;20202;-75
2022/05/13 19:53:47;;;;;;;3.08;2.33;;;;;;;;;;10414297;28;20273;-75
2022/05/13 19:58:49;;;;;;;1.88;1.70;;;;;;;;;;10442289;28;20217;-75
2022/05/13 20:03:50;;;;;;;1.63;1.55;;;;;;;;;;10425983;28;20242;-75
2022/05/13 20:14:11;;;;;;;2.95;2.40;;;;;;;;;;10440922;28;20206;-75
2022/05/13 20:19:12;;;;;;;4.47;2.40;;;;;;;;;;10413024;28;20199;-75
2022/05/13 20:24:13;;;;;;;3.13;2.53;;;;;;;;;;10445060;28;20223;-75
2022/05/13 20:29:15;;;;;;;2.30;2.20;;;;;;;;;;10446143;28;20305;-74
2022/05/13 20:34:16;;;;;;;2.80;2.60;;;;;;;;;;10410717;28;20214;-74
2022/05/13 20:39:18;;;;;;;4.93;3.63;;;;;;;;;;10432013;28;20210;-74
2022/05/13 20:44:20;;;;;;;4.05;2.85;;;;;;;;;;10450643;28;20950;-74
2022/05/13 20:49:23;;;;;;;3.17;2.88;;;;;;;;;;10449701;28;20230;-74
2022/05/13 20:54:24;;;;;;;3.83;3.20;;;;;;;;;;10451170;28;20196;-76
2022/05/13 20:59:25;;;;;;;3.67;3.38;;;;;;;;;;10450969;28;20210;-74
2022/05/13 21:04:36;;;;;;;4.35;3.95;;;;;;;;;;10442776;28;20233;-73
2022/05/13 21:09:37;;;;;;;4.35;4.10;;;;;;;;;;10451867;28;20206;-74
2022/05/13 21:14:38;;;;;;;5.65;4.18;;;;;;;;;;10434521;28;20206;-74
2022/05/13 21:19:39;;;;;;;4.63;4.10;;;;;;;;;;10441006;28;20214;-74
2022/05/13 21:24:40;;;;;;;4.43;4.03;;;;;;;;;;10448511;28;20208;-73
2022/05/13 21:29:42;;;;;;;6.10;4.72;;;;;;;;;;10443566;28;23809;-74
2022/05/13 21:40:03;;;;;;;4.70;3.92;;;;;;;;;;10457313;28;20343;-74
2022/05/13 21:45:05;;;;;;;7.72;4.88;;;;;;;;;;10457562;28;20348;-74
2022/05/13 21:50:06;;;;;;;5.00;4.57;;;;;;;;;;10459442;28;20182;-73
2022/05/13 21:55:07;;;;;;;4.80;4.50;;;;;;;;;;10447722;28;20607;-74
2022/05/13 22:00:17;;;;;;;5.60;5.15;;;;;;;;;;10430836;28;20190;-72
2022/05/13 22:05:18;;;;;;;5.75;4.85;;;;;;;;;;10407667;28;20850;-72
2022/05/13 22:10:19;;;;;;;6.00;5.18;;;;;;;;;;10437518;28;20998;-72
2022/05/13 22:15:20;;;;;;;6.32;5.72;;;;;;;;;;10450280;28;20233;-72
2022/05/13 22:20:22;;;;;;;10.45;5.95;;;;;;;;;;10447698;28;20198;-73
2022/05/13 22:25:23;;;;;;;6.28;5.90;;;;;;;;;;10451892;28;20206;-73
2022/05/13 22:30:24;;;;;;;7.10;6.03;;;;;;;;;;10456629;28;20193;-72
2022/05/13 22:35:25;;;;;;;8.70;6.40;;;;;;;;;;10458446;28;20238;-73
2022/05/13 22:40:26;;;;;;;7.03;6.50;;;;;;;;;;10457637;28;20191;-72
2022/05/13 22:45:27;;;;;;;7.10;6.57;;;;;;;;;;10454068;28;20227;-73
2022/05/13 22:50:28;;;;;;;7.03;6.43;;;;;;;;;;10464762;28;20202;-74
2022/05/13 22:55:30;;;;;;;7.82;7.15;;;;;;;;;;10449252;28;20214;-75
2022/05/13 23:00:31;;;;;;;7.43;6.82;;;;;;;;;;10452791;28;20206;-73
2022/05/13 23:05:33;;;;;;;8.77;7.97;;;;;;;;;;10446278;28;20243;-73
2022/05/13 23:11:21;;;;;;;9.68;8.70;;;;;;;;;;10461643;28;20206;-73
2022/05/13 23:15:55;;;;;;;9.50;8.80;;;;;;;;;;10442096;28;20210;-74
2022/05/13 23:20:56;;;;;;;9.60;8.93;;;;;;;;;;10439715;28;20313;-73
2022/05/13 23:25:57;;;;;;;10.15;9.32;;;;;;;;;;10467101;28;20662;-73
2022/05/13 23:30:58;;;;;;;9.35;8.35;;;;;;;;;;10454230;28;20236;-74
2022/05/13 23:35:59;;;;;;;10.30;9.25;;;;;;;;;;10465108;28;20689;-74
2022/05/13 23:41:00;;;;;;;10.88;9.55;;;;;;;;;;10457366;28;20204;-74
2022/05/13 23:46:02;;;;;;;10.88;9.57;;;;;;;;;;10458489;28;20257;-74
2022/05/13 23:51:04;;;;;;;10.00;9.18;;;;;;;;;;10447740;28;20207;-74
2022/05/13 23:56:05;;;;;;;11.02;9.77;;;;;;;;;;10457628;28;20349;-74
